sensor_id;sensor_type;location;lat;lon;timestamp;P1;durP1;ratioP1;P2;durP2;ratioP2
6432;SDS011;3249;42.690;23.260;2022-07-10T00:01:25;17.00;;;15.37;;
6432;SDS011;3249;42.690;23.260;2022-07-10T00:03:51;15.40;;;14.10;;
6432;SDS011;3249;42.690;23.260;2022-07-10T00:06:16;16.23;;;14.73;;
6432;SDS011;3249;42.690;23.260;2022-07-10T00:08:42;15.80;;;14.43;;
6432;SDS011;3249;42.690;23.260;2022-07-10T00:11:08;16.47;;;14.97;;
6432;SDS011;3249;42.690;23.260;2022-07-10T00:13:34;16.80;;;15.10;;
6432;SDS011;3249;42.690;23.260;2022-07-10T00:15:59;16.20;;;14.90;;
6432;SDS011;3249;42.690;23.260;2022-07-10T00:18:27;15.83;;;14.43;;
6432;SDS011;3249;42.690;23.260;2022-07-10T00:20:55;16.00;;;14.60;;
6432;SDS011;3249;42.690;23.260;2022-07-10T00:23:20;17.63;;;15.97;;
6432;SDS011;3249;42.690;23.260;2022-07-10T00:25:46;16.60;;;15.03;;
6432;SDS011;3249;42.690;23.260;2022-07-10T00:28:12;16.37;;;14.97;;
6432;SDS011;3249;42.690;23.260;2022-07-10T00:30:37;16.70;;;15.37;;
6432;SDS011;3249;42.690;23.260;2022-07-10T00:33:03;17.20;;;15.43;;
6432;SDS011;3249;42.690;23.260;2022-07-10T00:35:29;17.97;;;16.17;;
6432;SDS011;3249;42.690;23.260;2022-07-10T00:37:54;18.20;;;16.60;;
6432;SDS011;3249;42.690;23.260;2022-07-10T00:40:20;16.93;;;15.33;;
6432;SDS011;3249;42.690;23.260;2022-07-10T00:42:45;17.50;;;15.80;;
6432;SDS011;3249;42.690;23.260;2022-07-10T00:45:11;17.93;;;16.33;;
6432;SDS011;3249;42.690;23.260;2022-07-10T00:47:37;18.90;;;17.03;;
6432;SDS011;3249;42.690;23.260;2022-07-10T00:50:03;18.77;;;17.03;;
6432;SDS011;3249;42.690;23.260;2022-07-10T00:52:29;19.27;;;17.27;;
6432;SDS011;3249;42.690;23.260;2022-07-10T00:54:55;20.13;;;17.57;;
6432;SDS011;3249;42.690;23.260;2022-07-10T00:57:22;18.30;;;16.70;;
6432;SDS011;3249;42.690;23.260;2022-07-10T00:59:48;18.30;;;16.60;;
6432;SDS011;3249;42.690;23.260;2022-07-10T01:02:14;16.27;;;14.73;;
6432;SDS011;3249;42.690;23.260;2022-07-10T01:04:40;16.33;;;14.93;;
6432;SDS011;3249;42.690;23.260;2022-07-10T01:07:06;17.30;;;15.50;;
6432;SDS011;3249;42.690;23.260;2022-07-10T01:09:32;17.67;;;15.70;;
6432;SDS011;3249;42.690;23.260;2022-07-10T01:12:02;18.00;;;16.20;;
6432;SDS011;3249;42.690;23.260;2022-07-10T01:14:28;16.80;;;15.40;;
6432;SDS011;3249;42.690;23.260;2022-07-10T01:16:55;17.37;;;15.67;;
6432;SDS011;3249;42.690;23.260;2022-07-10T01:19:21;17.43;;;15.70;;
6432;SDS011;3249;42.690;23.260;2022-07-10T01:21:46;18.50;;;16.07;;
6432;SDS011;3249;42.690;23.260;2022-07-10T01:24:12;16.30;;;14.83;;
6432;SDS011;3249;42.690;23.260;2022-07-10T01:26:37;16.37;;;14.77;;
6432;SDS011;3249;42.690;23.260;2022-07-10T01:29:07;15.03;;;13.63;;
6432;SDS011;3249;42.690;23.260;2022-07-10T01:31:32;16.97;;;15.30;;
6432;SDS011;3249;42.690;23.260;2022-07-10T01:33:59;15.30;;;13.67;;
6432;SDS011;3249;42.690;23.260;2022-07-10T01:36:25;15.50;;;14.10;;
6432;SDS011;3249;42.690;23.260;2022-07-10T01:38:54;15.47;;;14.17;;
6432;SDS011;3249;42.690;23.260;2022-07-10T01:41:20;14.87;;;13.47;;
6432;SDS011;3249;42.690;23.260;2022-07-10T01:43:46;15.20;;;13.80;;
6432;SDS011;3249;42.690;23.260;2022-07-10T01:46:13;15.50;;;14.17;;
6432;SDS011;3249;42.690;23.260;2022-07-10T01:48:39;15.37;;;13.97;;
6432;SDS011;3249;42.690;23.260;2022-07-10T01:51:05;15.40;;;14.10;;
6432;SDS011;3249;42.690;23.260;2022-07-10T01:53:31;15.27;;;13.73;;
6432;SDS011;3249;42.690;23.260;2022-07-10T01:55:57;15.53;;;14.10;;
6432;SDS011;3249;42.690;23.260;2022-07-10T01:58:23;14.30;;;12.93;;
6432;SDS011;3249;42.690;23.260;2022-07-10T02:00:49;15.73;;;14.07;;
6432;SDS011;3249;42.690;23.260;2022-07-10T02:03:15;14.27;;;13.07;;
6432;SDS011;3249;42.690;23.260;2022-07-10T02:05:58;13.73;;;12.43;;
6432;SDS011;3249;42.690;23.260;2022-07-10T02:08:24;15.37;;;13.87;;
6432;SDS011;3249;42.690;23.260;2022-07-10T02:10:49;14.70;;;13.40;;
6432;SDS011;3249;42.690;23.260;2022-07-10T02:13:15;14.53;;;13.23;;
6432;SDS011;3249;42.690;23.260;2022-07-10T02:15:45;14.13;;;12.80;;
6432;SDS011;3249;42.690;23.260;2022-07-10T02:18:10;15.20;;;13.90;;
6432;SDS011;3249;42.690;23.260;2022-07-10T02:20:36;15.70;;;14.10;;
6432;SDS011;3249;42.690;23.260;2022-07-10T02:23:01;15.63;;;14.13;;
6432;SDS011;3249;42.690;23.260;2022-07-10T02:25:27;15.47;;;13.97;;
6432;SDS011;3249;42.690;23.260;2022-07-10T02:27:52;15.00;;;13.63;;
6432;SDS011;3249;42.690;23.260;2022-07-10T02:30:18;15.70;;;14.17;;
6432;SDS011;3249;42.690;23.260;2022-07-10T02:32:43;15.10;;;13.70;;
6432;SDS011;3249;42.690;23.260;2022-07-10T02:35:09;15.53;;;14.13;;
6432;SDS011;3249;42.690;23.260;2022-07-10T02:37:34;14.70;;;13.40;;
6432;SDS011;3249;42.690;23.260;2022-07-10T02:39:59;13.13;;;11.97;;
6432;SDS011;3249;42.690;23.260;2022-07-10T02:42:25;14.37;;;12.97;;
6432;SDS011;3249;42.690;23.260;2022-07-10T02:44:50;14.50;;;13.10;;
6432;SDS011;3249;42.690;23.260;2022-07-10T02:47:16;13.90;;;12.63;;
6432;SDS011;3249;42.690;23.260;2022-07-10T02:49:41;14.43;;;13.23;;
6432;SDS011;3249;42.690;23.260;2022-07-10T02:52:06;15.13;;;13.50;;
6432;SDS011;3249;42.690;23.260;2022-07-10T02:54:32;14.30;;;12.87;;
6432;SDS011;3249;42.690;23.260;2022-07-10T02:56:57;13.77;;;12.20;;
6432;SDS011;3249;42.690;23.260;2022-07-10T02:59:23;15.00;;;13.70;;
6432;SDS011;3249;42.690;23.260;2022-07-10T03:01:48;13.73;;;12.53;;
6432;SDS011;3249;42.690;23.260;2022-07-10T03:04:13;13.77;;;12.47;;
6432;SDS011;3249;42.690;23.260;2022-07-10T03:06:39;14.13;;;12.83;;
6432;SDS011;3249;42.690;23.260;2022-07-10T03:09:04;15.27;;;13.73;;
6432;SDS011;3249;42.690;23.260;2022-07-10T03:11:30;15.40;;;13.90;;
6432;SDS011;3249;42.690;23.260;2022-07-10T03:13:55;15.30;;;13.93;;
6432;SDS011;3249;42.690;23.260;2022-07-10T03:16:20;15.37;;;14.03;;
6432;SDS011;3249;42.690;23.260;2022-07-10T03:18:46;14.77;;;13.33;;
6432;SDS011;3249;42.690;23.260;2022-07-10T03:21:11;14.70;;;13.43;;
6432;SDS011;3249;42.690;23.260;2022-07-10T03:23:37;15.33;;;13.93;;
6432;SDS011;3249;42.690;23.260;2022-07-10T03:26:04;14.53;;;13.13;;
6432;SDS011;3249;42.690;23.260;2022-07-10T03:28:30;14.43;;;13.07;;
6432;SDS011;3249;42.690;23.260;2022-07-10T03:30:56;14.23;;;12.93;;
6432;SDS011;3249;42.690;23.260;2022-07-10T03:33:21;14.00;;;12.60;;
6432;SDS011;3249;42.690;23.260;2022-07-10T03:35:47;14.60;;;13.40;;
6432;SDS011;3249;42.690;23.260;2022-07-10T03:38:12;13.63;;;12.50;;
6432;SDS011;3249;42.690;23.260;2022-07-10T03:40:38;12.90;;;11.93;;
6432;SDS011;3249;42.690;23.260;2022-07-10T03:43:03;13.70;;;12.57;;
6432;SDS011;3249;42.690;23.260;2022-07-10T03:45:28;13.40;;;12.10;;
6432;SDS011;3249;42.690;23.260;2022-07-10T03:47:54;13.67;;;12.40;;
6432;SDS011;3249;42.690;23.260;2022-07-10T03:50:19;12.33;;;11.10;;
6432;SDS011;3249;42.690;23.260;2022-07-10T03:52:45;13.47;;;12.27;;
6432;SDS011;3249;42.690;23.260;2022-07-10T03:55:11;13.70;;;12.40;;
6432;SDS011;3249;42.690;23.260;2022-07-10T03:57:37;12.67;;;11.47;;
6432;SDS011;3249;42.690;23.260;2022-07-10T04:00:25;12.63;;;11.47;;
6432;SDS011;3249;42.690;23.260;2022-07-10T04:03:00;12.17;;;11.27;;
6432;SDS011;3249;42.690;23.260;2022-07-10T04:05:28;12.47;;;11.37;;
6432;SDS011;3249;42.690;23.260;2022-07-10T04:07:54;11.33;;;10.47;;
6432;SDS011;3249;42.690;23.260;2022-07-10T04:10:21;11.57;;;10.60;;
6432;SDS011;3249;42.690;23.260;2022-07-10T04:12:48;12.17;;;11.07;;
6432;SDS011;3249;42.690;23.260;2022-07-10T04:15:13;11.20;;;10.30;;
6432;SDS011;3249;42.690;23.260;2022-07-10T04:17:39;11.17;;;10.27;;
6432;SDS011;3249;42.690;23.260;2022-07-10T04:20:05;11.00;;;10.10;;
6432;SDS011;3249;42.690;23.260;2022-07-10T04:22:31;10.73;;;9.87;;
6432;SDS011;3249;42.690;23.260;2022-07-10T04:24:56;10.70;;;9.67;;
6432;SDS011;3249;42.690;23.260;2022-07-10T04:27:22;11.30;;;9.93;;
6432;SDS011;3249;42.690;23.260;2022-07-10T04:29:47;11.23;;;10.17;;
6432;SDS011;3249;42.690;23.260;2022-07-10T04:32:13;10.73;;;9.73;;
6432;SDS011;3249;42.690;23.260;2022-07-10T04:34:39;9.80;;;8.93;;
6432;SDS011;3249;42.690;23.260;2022-07-10T04:37:05;10.13;;;9.33;;
6432;SDS011;3249;42.690;23.260;2022-07-10T04:39:37;10.10;;;9.17;;
6432;SDS011;3249;42.690;23.260;2022-07-10T04:42:04;10.57;;;9.60;;
6432;SDS011;3249;42.690;23.260;2022-07-10T04:44:30;10.53;;;9.43;;
6432;SDS011;3249;42.690;23.260;2022-07-10T04:46:56;10.87;;;10.03;;
6432;SDS011;3249;42.690;23.260;2022-07-10T04:49:21;11.50;;;10.47;;
6432;SDS011;3249;42.690;23.260;2022-07-10T04:51:46;12.10;;;10.63;;
6432;SDS011;3249;42.690;23.260;2022-07-10T04:54:12;11.07;;;10.17;;
6432;SDS011;3249;42.690;23.260;2022-07-10T04:56:37;10.90;;;10.00;;
6432;SDS011;3249;42.690;23.260;2022-07-10T04:59:03;11.10;;;10.03;;
6432;SDS011;3249;42.690;23.260;2022-07-10T05:01:28;10.70;;;9.80;;
6432;SDS011;3249;42.690;23.260;2022-07-10T05:03:54;17.97;;;10.73;;
6432;SDS011;3249;42.690;23.260;2022-07-10T05:06:19;10.63;;;9.60;;
6432;SDS011;3249;42.690;23.260;2022-07-10T05:08:45;10.50;;;9.67;;
6432;SDS011;3249;42.690;23.260;2022-07-10T05:11:10;10.90;;;10.00;;
6432;SDS011;3249;42.690;23.260;2022-07-10T05:13:36;11.00;;;10.10;;
6432;SDS011;3249;42.690;23.260;2022-07-10T05:16:02;10.93;;;10.13;;
6432;SDS011;3249;42.690;23.260;2022-07-10T05:18:28;11.40;;;10.40;;
6432;SDS011;3249;42.690;23.260;2022-07-10T05:20:53;10.33;;;9.37;;
6432;SDS011;3249;42.690;23.260;2022-07-10T05:23:19;10.67;;;9.63;;
6432;SDS011;3249;42.690;23.260;2022-07-10T05:25:44;11.53;;;10.60;;
6432;SDS011;3249;42.690;23.260;2022-07-10T05:28:10;11.07;;;10.27;;
6432;SDS011;3249;42.690;23.260;2022-07-10T05:30:37;9.83;;;9.03;;
6432;SDS011;3249;42.690;23.260;2022-07-10T05:33:03;9.23;;;8.43;;
6432;SDS011;3249;42.690;23.260;2022-07-10T05:35:28;9.83;;;8.93;;
6432;SDS011;3249;42.690;23.260;2022-07-10T05:37:54;10.53;;;9.73;;
6432;SDS011;3249;42.690;23.260;2022-07-10T05:40:19;10.27;;;9.27;;
6432;SDS011;3249;42.690;23.260;2022-07-10T05:42:45;9.77;;;9.03;;
6432;SDS011;3249;42.690;23.260;2022-07-10T05:45:11;10.67;;;9.60;;
6432;SDS011;3249;42.690;23.260;2022-07-10T05:47:36;9.53;;;8.73;;
6432;SDS011;3249;42.690;23.260;2022-07-10T05:50:02;10.93;;;8.73;;
6432;SDS011;3249;42.690;23.260;2022-07-10T05:52:28;8.50;;;7.80;;
6432;SDS011;3249;42.690;23.260;2022-07-10T05:54:55;9.70;;;8.80;;
6432;SDS011;3249;42.690;23.260;2022-07-10T05:57:21;9.33;;;8.53;;
6432;SDS011;3249;42.690;23.260;2022-07-10T05:59:47;9.33;;;8.63;;
6432;SDS011;3249;42.690;23.260;2022-07-10T06:02:12;9.07;;;8.43;;
6432;SDS011;3249;42.690;23.260;2022-07-10T06:04:38;8.60;;;8.00;;
6432;SDS011;3249;42.690;23.260;2022-07-10T06:07:04;7.97;;;7.47;;
6432;SDS011;3249;42.690;23.260;2022-07-10T06:09:30;10.37;;;8.13;;
6432;SDS011;3249;42.690;23.260;2022-07-10T06:11:55;9.83;;;9.20;;
6432;SDS011;3249;42.690;23.260;2022-07-10T06:14:20;9.90;;;8.23;;
6432;SDS011;3249;42.690;23.260;2022-07-10T06:16:46;7.73;;;7.10;;
6432;SDS011;3249;42.690;23.260;2022-07-10T06:19:11;8.67;;;7.97;;
6432;SDS011;3249;42.690;23.260;2022-07-10T06:21:37;6.93;;;6.50;;
6432;SDS011;3249;42.690;23.260;2022-07-10T06:24:03;7.17;;;6.67;;
6432;SDS011;3249;42.690;23.260;2022-07-10T06:26:28;7.50;;;7.00;;
6432;SDS011;3249;42.690;23.260;2022-07-10T06:28:54;7.00;;;6.50;;
6432;SDS011;3249;42.690;23.260;2022-07-10T06:31:19;7.30;;;6.70;;
6432;SDS011;3249;42.690;23.260;2022-07-10T06:33:44;7.70;;;7.00;;
6432;SDS011;3249;42.690;23.260;2022-07-10T06:36:10;7.13;;;6.43;;
6432;SDS011;3249;42.690;23.260;2022-07-10T06:38:37;8.90;;;6.60;;
6432;SDS011;3249;42.690;23.260;2022-07-10T06:41:03;8.87;;;6.17;;
6432;SDS011;3249;42.690;23.260;2022-07-10T06:43:28;7.13;;;6.40;;
6432;SDS011;3249;42.690;23.260;2022-07-10T06:45:54;7.17;;;6.73;;
6432;SDS011;3249;42.690;23.260;2022-07-10T06:48:20;7.07;;;6.57;;
6432;SDS011;3249;42.690;23.260;2022-07-10T06:50:46;7.60;;;6.90;;
6432;SDS011;3249;42.690;23.260;2022-07-10T06:53:12;6.40;;;6.00;;
6432;SDS011;3249;42.690;23.260;2022-07-10T06:55:37;6.83;;;6.20;;
6432;SDS011;3249;42.690;23.260;2022-07-10T06:58:03;7.27;;;6.10;;
6432;SDS011;3249;42.690;23.260;2022-07-10T07:00:28;7.13;;;6.63;;
6432;SDS011;3249;42.690;23.260;2022-07-10T07:02:54;6.83;;;6.13;;
6432;SDS011;3249;42.690;23.260;2022-07-10T07:05:20;6.27;;;5.67;;
6432;SDS011;3249;42.690;23.260;2022-07-10T07:07:45;10.40;;;5.77;;
6432;SDS011;3249;42.690;23.260;2022-07-10T07:10:11;6.77;;;6.10;;
6432;SDS011;3249;42.690;23.260;2022-07-10T07:12:37;5.73;;;5.30;;
6432;SDS011;3249;42.690;23.260;2022-07-10T07:15:03;6.23;;;5.73;;
6432;SDS011;3249;42.690;23.260;2022-07-10T07:17:29;6.03;;;5.60;;
6432;SDS011;3249;42.690;23.260;2022-07-10T07:20:11;6.83;;;6.23;;
6432;SDS011;3249;42.690;23.260;2022-07-10T07:22:58;6.23;;;5.70;;
6432;SDS011;3249;42.690;23.260;2022-07-10T07:25:35;7.07;;;6.00;;
6432;SDS011;3249;42.690;23.260;2022-07-10T07:28:03;5.67;;;5.17;;
6432;SDS011;3249;42.690;23.260;2022-07-10T07:30:28;6.07;;;5.57;;
6432;SDS011;3249;42.690;23.260;2022-07-10T07:32:54;5.77;;;5.27;;
6432;SDS011;3249;42.690;23.260;2022-07-10T07:35:20;5.90;;;5.50;;
6432;SDS011;3249;42.690;23.260;2022-07-10T07:37:47;5.97;;;5.57;;
6432;SDS011;3249;42.690;23.260;2022-07-10T07:40:16;5.63;;;5.27;;
6432;SDS011;3249;42.690;23.260;2022-07-10T07:42:47;6.73;;;5.23;;
6432;SDS011;3249;42.690;23.260;2022-07-10T07:45:13;6.27;;;5.07;;
6432;SDS011;3249;42.690;23.260;2022-07-10T07:47:42;6.30;;;5.27;;
6432;SDS011;3249;42.690;23.260;2022-07-10T07:50:13;7.33;;;5.57;;
6432;SDS011;3249;42.690;23.260;2022-07-10T07:52:42;7.30;;;5.30;;
6432;SDS011;3249;42.690;23.260;2022-07-10T07:55:09;5.20;;;4.90;;
6432;SDS011;3249;42.690;23.260;2022-07-10T07:57:35;5.20;;;4.70;;
6432;SDS011;3249;42.690;23.260;2022-07-10T08:00:01;5.23;;;4.83;;
6432;SDS011;3249;42.690;23.260;2022-07-10T08:02:28;7.30;;;5.03;;
6432;SDS011;3249;42.690;23.260;2022-07-10T08:04:54;5.43;;;4.93;;
6432;SDS011;3249;42.690;23.260;2022-07-10T08:07:19;5.07;;;4.77;;
6432;SDS011;3249;42.690;23.260;2022-07-10T08:09:44;5.90;;;4.63;;
6432;SDS011;3249;42.690;23.260;2022-07-10T08:12:10;6.13;;;4.93;;
6432;SDS011;3249;42.690;23.260;2022-07-10T08:14:35;4.53;;;4.23;;
6432;SDS011;3249;42.690;23.260;2022-07-10T08:17:01;11.83;;;10.00;;
6432;SDS011;3249;42.690;23.260;2022-07-10T08:19:26;5.27;;;4.77;;
6432;SDS011;3249;42.690;23.260;2022-07-10T08:21:52;4.67;;;4.27;;
6432;SDS011;3249;42.690;23.260;2022-07-10T08:24:17;5.57;;;4.40;;
6432;SDS011;3249;42.690;23.260;2022-07-10T08:26:43;4.47;;;4.23;;
6432;SDS011;3249;42.690;23.260;2022-07-10T08:29:09;4.27;;;4.07;;
6432;SDS011;3249;42.690;23.260;2022-07-10T08:31:35;4.43;;;4.00;;
6432;SDS011;3249;42.690;23.260;2022-07-10T08:34:00;5.33;;;4.03;;
6432;SDS011;3249;42.690;23.260;2022-07-10T08:36:26;5.10;;;4.70;;
6432;SDS011;3249;42.690;23.260;2022-07-10T08:38:52;7.27;;;4.50;;
6432;SDS011;3249;42.690;23.260;2022-07-10T08:41:21;7.63;;;4.50;;
6432;SDS011;3249;42.690;23.260;2022-07-10T08:43:49;4.90;;;4.40;;
6432;SDS011;3249;42.690;23.260;2022-07-10T08:46:15;4.83;;;4.50;;
6432;SDS011;3249;42.690;23.260;2022-07-10T08:48:42;9.13;;;4.80;;
6432;SDS011;3249;42.690;23.260;2022-07-10T08:51:16;5.10;;;4.70;;
6432;SDS011;3249;42.690;23.260;2022-07-10T08:53:50;4.50;;;4.10;;
6432;SDS011;3249;42.690;23.260;2022-07-10T08:56:16;4.33;;;4.07;;
6432;SDS011;3249;42.690;23.260;2022-07-10T08:58:42;4.10;;;3.80;;
6432;SDS011;3249;42.690;23.260;2022-07-10T09:01:08;7.23;;;4.87;;
6432;SDS011;3249;42.690;23.260;2022-07-10T09:03:34;4.27;;;4.00;;
6432;SDS011;3249;42.690;23.260;2022-07-10T09:06:01;6.03;;;4.30;;
6432;SDS011;3249;42.690;23.260;2022-07-10T09:08:28;4.80;;;4.50;;
6432;SDS011;3249;42.690;23.260;2022-07-10T09:11:12;5.00;;;4.60;;
6432;SDS011;3249;42.690;23.260;2022-07-10T09:13:54;5.13;;;4.70;;
6432;SDS011;3249;42.690;23.260;2022-07-10T09:16:25;4.57;;;4.20;;
6432;SDS011;3249;42.690;23.260;2022-07-10T09:19:17;11.10;;;3.80;;
6432;SDS011;3249;42.690;23.260;2022-07-10T09:24:39;5.60;;;5.07;;
6432;SDS011;3249;42.690;23.260;2022-07-10T09:27:11;4.73;;;4.43;;
6432;SDS011;3249;42.690;23.260;2022-07-10T09:32:11;3.50;;;3.30;;
6432;SDS011;3249;42.690;23.260;2022-07-10T09:37:40;5.10;;;3.67;;
6432;SDS011;3249;42.690;23.260;2022-07-10T09:40:07;3.70;;;3.50;;
6432;SDS011;3249;42.690;23.260;2022-07-10T09:42:33;4.20;;;3.80;;
6432;SDS011;3249;42.690;23.260;2022-07-10T09:47:36;4.77;;;3.67;;
6432;SDS011;3249;42.690;23.260;2022-07-10T09:50:02;4.67;;;3.40;;
6432;SDS011;3249;42.690;23.260;2022-07-10T09:52:28;3.80;;;3.57;;
6432;SDS011;3249;42.690;23.260;2022-07-10T09:54:55;3.73;;;3.53;;
6432;SDS011;3249;42.690;23.260;2022-07-10T09:57:21;3.60;;;3.40;;
6432;SDS011;3249;42.690;23.260;2022-07-10T09:59:53;3.80;;;3.60;;
6432;SDS011;3249;42.690;23.260;2022-07-10T10:02:19;3.63;;;3.33;;
6432;SDS011;3249;42.690;23.260;2022-07-10T10:04:46;3.83;;;3.40;;
6432;SDS011;3249;42.690;23.260;2022-07-10T10:07:13;3.67;;;3.37;;
6432;SDS011;3249;42.690;23.260;2022-07-10T10:09:49;5.70;;;4.00;;
6432;SDS011;3249;42.690;23.260;2022-07-10T10:12:44;3.87;;;3.67;;
6432;SDS011;3249;42.690;23.260;2022-07-10T10:15:10;5.23;;;3.73;;
6432;SDS011;3249;42.690;23.260;2022-07-10T10:17:36;4.60;;;3.80;;
6432;SDS011;3249;42.690;23.260;2022-07-10T10:20:05;6.50;;;4.07;;
6432;SDS011;3249;42.690;23.260;2022-07-10T10:22:51;4.20;;;3.90;;
6432;SDS011;3249;42.690;23.260;2022-07-10T10:25:20;4.00;;;3.70;;
6432;SDS011;3249;42.690;23.260;2022-07-10T10:27:48;4.90;;;3.77;;
6432;SDS011;3249;42.690;23.260;2022-07-10T10:30:13;3.93;;;3.63;;
6432;SDS011;3249;42.690;23.260;2022-07-10T10:32:41;3.90;;;3.53;;
6432;SDS011;3249;42.690;23.260;2022-07-10T10:35:07;4.00;;;3.70;;
6432;SDS011;3249;42.690;23.260;2022-07-10T10:37:39;3.90;;;3.50;;
6432;SDS011;3249;42.690;23.260;2022-07-10T10:40:10;7.67;;;4.37;;
6432;SDS011;3249;42.690;23.260;2022-07-10T10:42:54;3.80;;;3.50;;
6432;SDS011;3249;42.690;23.260;2022-07-10T10:50:37;4.97;;;3.73;;
6432;SDS011;3249;42.690;23.260;2022-07-10T10:58:25;5.87;;;3.40;;
6432;SDS011;3249;42.690;23.260;2022-07-10T11:00:52;3.43;;;3.23;;
6432;SDS011;3249;42.690;23.260;2022-07-10T11:03:31;3.40;;;3.10;;
6432;SDS011;3249;42.690;23.260;2022-07-10T11:05:56;4.00;;;3.60;;
6432;SDS011;3249;42.690;23.260;2022-07-10T11:08:41;3.67;;;3.37;;
6432;SDS011;3249;42.690;23.260;2022-07-10T11:14:06;5.37;;;4.17;;
6432;SDS011;3249;42.690;23.260;2022-07-10T11:16:33;4.23;;;3.73;;
6432;SDS011;3249;42.690;23.260;2022-07-10T11:18:59;4.10;;;3.67;;
6432;SDS011;3249;42.690;23.260;2022-07-10T11:21:25;4.17;;;3.40;;
6432;SDS011;3249;42.690;23.260;2022-07-10T11:26:38;3.93;;;3.63;;
6432;SDS011;3249;42.690;23.260;2022-07-10T11:29:08;3.67;;;3.30;;
6432;SDS011;3249;42.690;23.260;2022-07-10T11:31:33;5.03;;;3.70;;
6432;SDS011;3249;42.690;23.260;2022-07-10T11:34:03;3.60;;;3.30;;
6432;SDS011;3249;42.690;23.260;2022-07-10T11:36:29;4.80;;;4.47;;
6432;SDS011;3249;42.690;23.260;2022-07-10T11:39:00;5.00;;;3.60;;
6432;SDS011;3249;42.690;23.260;2022-07-10T11:41:28;4.17;;;3.87;;
6432;SDS011;3249;42.690;23.260;2022-07-10T11:43:55;4.30;;;3.90;;
6432;SDS011;3249;42.690;23.260;2022-07-10T11:46:30;3.93;;;3.57;;
6432;SDS011;3249;42.690;23.260;2022-07-10T11:49:02;4.43;;;4.03;;
6432;SDS011;3249;42.690;23.260;2022-07-10T11:51:34;4.27;;;3.57;;
6432;SDS011;3249;42.690;23.260;2022-07-10T11:54:05;4.43;;;2.97;;
6432;SDS011;3249;42.690;23.260;2022-07-10T11:56:33;3.70;;;3.40;;
6432;SDS011;3249;42.690;23.260;2022-07-10T11:59:06;3.50;;;3.20;;
6432;SDS011;3249;42.690;23.260;2022-07-10T12:01:40;3.50;;;3.30;;
6432;SDS011;3249;42.690;23.260;2022-07-10T12:04:06;3.50;;;3.30;;
6432;SDS011;3249;42.690;23.260;2022-07-10T12:06:34;3.27;;;2.97;;
6432;SDS011;3249;42.690;23.260;2022-07-10T12:09:01;3.83;;;3.13;;
6432;SDS011;3249;42.690;23.260;2022-07-10T12:11:29;4.20;;;2.70;;
6432;SDS011;3249;42.690;23.260;2022-07-10T12:14:07;3.23;;;2.93;;
6432;SDS011;3249;42.690;23.260;2022-07-10T12:16:40;3.90;;;2.60;;
6432;SDS011;3249;42.690;23.260;2022-07-10T12:19:11;2.90;;;2.70;;
6432;SDS011;3249;42.690;23.260;2022-07-10T12:21:41;3.20;;;2.90;;
6432;SDS011;3249;42.690;23.260;2022-07-10T12:24:08;3.00;;;2.70;;
6432;SDS011;3249;42.690;23.260;2022-07-10T12:26:35;3.20;;;2.93;;
6432;SDS011;3249;42.690;23.260;2022-07-10T12:29:02;3.63;;;3.33;;
6432;SDS011;3249;42.690;23.260;2022-07-10T12:31:30;5.50;;;3.97;;
6432;SDS011;3249;42.690;23.260;2022-07-10T12:34:02;4.33;;;3.40;;
6432;SDS011;3249;42.690;23.260;2022-07-10T12:36:42;3.93;;;3.07;;
6432;SDS011;3249;42.690;23.260;2022-07-10T12:39:12;6.03;;;3.10;;
6432;SDS011;3249;42.690;23.260;2022-07-10T12:45:06;4.37;;;3.20;;
6432;SDS011;3249;42.690;23.260;2022-07-10T12:47:15;2.57;;;2.47;;
6432;SDS011;3249;42.690;23.260;2022-07-10T12:49:51;2.50;;;2.30;;
6432;SDS011;3249;42.690;23.260;2022-07-10T12:52:29;3.03;;;2.57;;
6432;SDS011;3249;42.690;23.260;2022-07-10T13:00:26;2.53;;;2.23;;
6432;SDS011;3249;42.690;23.260;2022-07-10T13:03:03;4.90;;;2.33;;
6432;SDS011;3249;42.690;23.260;2022-07-10T13:08:22;2.50;;;2.40;;
6432;SDS011;3249;42.690;23.260;2022-07-10T13:10:52;2.63;;;2.43;;
6432;SDS011;3249;42.690;23.260;2022-07-10T13:13:22;2.70;;;2.60;;
6432;SDS011;3249;42.690;23.260;2022-07-10T13:15:47;2.57;;;2.37;;
6432;SDS011;3249;42.690;23.260;2022-07-10T13:18:24;3.57;;;2.40;;
6432;SDS011;3249;42.690;23.260;2022-07-10T13:20:52;2.20;;;2.10;;
6432;SDS011;3249;42.690;23.260;2022-07-10T13:23:19;2.43;;;2.10;;
6432;SDS011;3249;42.690;23.260;2022-07-10T13:25:47;3.20;;;2.20;;
6432;SDS011;3249;42.690;23.260;2022-07-10T13:28:14;3.20;;;2.40;;
6432;SDS011;3249;42.690;23.260;2022-07-10T13:30:41;3.43;;;2.30;;
6432;SDS011;3249;42.690;23.260;2022-07-10T13:33:07;2.30;;;2.20;;
6432;SDS011;3249;42.690;23.260;2022-07-10T13:35:33;2.23;;;2.00;;
6432;SDS011;3249;42.690;23.260;2022-07-10T13:37:59;2.30;;;2.20;;
6432;SDS011;3249;42.690;23.260;2022-07-10T13:40:29;2.50;;;2.30;;
6432;SDS011;3249;42.690;23.260;2022-07-10T13:42:56;2.50;;;2.30;;
6432;SDS011;3249;42.690;23.260;2022-07-10T13:45:23;2.20;;;2.10;;
6432;SDS011;3249;42.690;23.260;2022-07-10T13:47:50;2.27;;;2.17;;
6432;SDS011;3249;42.690;23.260;2022-07-10T13:50:15;2.60;;;2.40;;
6432;SDS011;3249;42.690;23.260;2022-07-10T13:52:41;2.77;;;2.27;;
6432;SDS011;3249;42.690;23.260;2022-07-10T13:55:06;2.57;;;2.40;;
6432;SDS011;3249;42.690;23.260;2022-07-10T13:57:33;2.47;;;2.17;;
6432;SDS011;3249;42.690;23.260;2022-07-10T13:59:58;2.57;;;2.40;;
6432;SDS011;3249;42.690;23.260;2022-07-10T14:02:24;3.23;;;2.50;;
6432;SDS011;3249;42.690;23.260;2022-07-10T14:04:49;2.40;;;2.13;;
6432;SDS011;3249;42.690;23.260;2022-07-10T14:07:15;2.97;;;2.70;;
6432;SDS011;3249;42.690;23.260;2022-07-10T14:09:40;3.00;;;2.37;;
6432;SDS011;3249;42.690;23.260;2022-07-10T14:12:06;3.10;;;2.80;;
6432;SDS011;3249;42.690;23.260;2022-07-10T14:14:31;3.13;;;2.10;;
6432;SDS011;3249;42.690;23.260;2022-07-10T14:16:57;2.57;;;2.37;;
6432;SDS011;3249;42.690;23.260;2022-07-10T14:19:22;3.20;;;2.30;;
6432;SDS011;3249;42.690;23.260;2022-07-10T14:21:48;2.90;;;2.60;;
6432;SDS011;3249;42.690;23.260;2022-07-10T14:24:13;3.17;;;2.93;;
6432;SDS011;3249;42.690;23.260;2022-07-10T14:26:39;5.93;;;4.00;;
6432;SDS011;3249;42.690;23.260;2022-07-10T14:29:05;3.13;;;2.93;;
6432;SDS011;3249;42.690;23.260;2022-07-10T14:31:31;2.53;;;2.43;;
6432;SDS011;3249;42.690;23.260;2022-07-10T14:33:57;2.67;;;2.37;;
6432;SDS011;3249;42.690;23.260;2022-07-10T14:36:23;5.40;;;2.60;;
6432;SDS011;3249;42.690;23.260;2022-07-10T14:38:52;2.73;;;2.53;;
6432;SDS011;3249;42.690;23.260;2022-07-10T14:41:18;2.90;;;2.50;;
6432;SDS011;3249;42.690;23.260;2022-07-10T14:43:43;2.53;;;2.37;;
6432;SDS011;3249;42.690;23.260;2022-07-10T14:46:09;3.10;;;2.90;;
6432;SDS011;3249;42.690;23.260;2022-07-10T14:48:34;2.37;;;2.27;;
6432;SDS011;3249;42.690;23.260;2022-07-10T14:51:01;3.57;;;2.67;;
6432;SDS011;3249;42.690;23.260;2022-07-10T14:53:26;2.70;;;2.60;;
6432;SDS011;3249;42.690;23.260;2022-07-10T14:55:52;2.93;;;2.73;;
6432;SDS011;3249;42.690;23.260;2022-07-10T14:58:18;3.27;;;3.07;;
6432;SDS011;3249;42.690;23.260;2022-07-10T15:00:43;4.77;;;2.67;;
6432;SDS011;3249;42.690;23.260;2022-07-10T15:03:09;7.23;;;2.90;;
6432;SDS011;3249;42.690;23.260;2022-07-10T15:05:34;3.07;;;2.67;;
6432;SDS011;3249;42.690;23.260;2022-07-10T15:08:00;2.97;;;2.67;;
6432;SDS011;3249;42.690;23.260;2022-07-10T15:10:26;10.00;;;2.83;;
6432;SDS011;3249;42.690;23.260;2022-07-10T15:12:52;2.97;;;2.77;;
6432;SDS011;3249;42.690;23.260;2022-07-10T15:15:18;3.13;;;2.50;;
6432;SDS011;3249;42.690;23.260;2022-07-10T15:17:44;2.87;;;2.70;;
6432;SDS011;3249;42.690;23.260;2022-07-10T15:20:10;3.00;;;2.73;;
6432;SDS011;3249;42.690;23.260;2022-07-10T15:22:36;3.50;;;2.83;;
6432;SDS011;3249;42.690;23.260;2022-07-10T15:25:02;3.10;;;2.90;;
6432;SDS011;3249;42.690;23.260;2022-07-10T15:27:28;3.10;;;2.80;;
6432;SDS011;3249;42.690;23.260;2022-07-10T15:29:53;3.23;;;2.70;;